createdAt,value
2022-12-20T00:01:22.576Z,100909.38
2022-12-20T00:03:51.337Z,100908.28
2022-12-20T00:06:18.874Z,100898.34
2022-12-20T00:08:45.942Z,100883.25
2022-12-20T00:11:13.485Z,100884.16
2022-12-20T00:13:40.018Z,100878.66
2022-12-20T00:16:08.938Z,100874.31
2022-12-20T00:18:36.678Z,100876.00
2022-12-20T00:21:04.730Z,100878.44
2022-12-20T00:23:31.209Z,100880.91
2022-12-20T00:26:05.947Z,100874.50
2022-12-20T00:28:34.510Z,100884.94
2022-12-20T00:31:02.817Z,100884.59
2022-12-20T00:33:29.245Z,100883.47
2022-12-20T00:35:56.829Z,100887.91
2022-12-20T00:38:24.553Z,100882.66
2022-12-20T00:41:06.435Z,100880.25
2022-12-20T00:43:34.136Z,100874.72
2022-12-20T00:46:01.391Z,100869.56
2022-12-20T00:48:28.927Z,100858.38
2022-12-20T00:51:00.581Z,100849.16
2022-12-20T00:53:28.395Z,100835.25
2022-12-20T00:55:54.893Z,100833.69
2022-12-20T00:58:21.609Z,100826.56
2022-12-20T01:00:54.091Z,100843.81
2022-12-20T01:03:23.024Z,100855.09
2022-12-20T01:05:54.834Z,100860.34
2022-12-20T01:08:22.209Z,100862.78
2022-12-20T01:11:06.980Z,100858.34
2022-12-20T01:13:35.480Z,100865.66
2022-12-20T01:16:10.496Z,100854.00
2022-12-20T01:18:37.038Z,100860.50
2022-12-20T01:21:05.902Z,100868.09
2022-12-20T01:23:32.381Z,100873.69
2022-12-20T01:26:04.859Z,100876.03
2022-12-20T01:28:32.394Z,100871.25
2022-12-20T01:30:58.960Z,100874.03
2022-12-20T01:33:25.364Z,100885.72
2022-12-20T01:36:00.472Z,100867.63
2022-12-20T01:38:28.232Z,100849.31
2022-12-20T01:40:55.821Z,100848.94
2022-12-20T01:43:22.660Z,100840.53
2022-12-20T01:45:49.153Z,100851.34
2022-12-20T01:48:19.903Z,100829.31
2022-12-20T01:50:48.115Z,100837.34
2022-12-20T01:53:16.531Z,100826.53
2022-12-20T01:55:43.015Z,100828.59
2022-12-20T01:58:13.097Z,100828.13
2022-12-20T02:00:39.655Z,100827.34
2022-12-20T02:03:11.853Z,100827.34
2022-12-20T02:05:42.300Z,100822.53
2022-12-20T02:08:10.561Z,100824.19
2022-12-20T02:11:17.719Z,100818.94
2022-12-20T02:14:03.414Z,100812.97
2022-12-20T02:16:36.469Z,100818.63
2022-12-20T02:19:39.913Z,100811.00
2022-12-20T02:22:40.941Z,100808.19
2022-12-20T02:25:44.202Z,100807.38
2022-12-20T02:28:47.652Z,100798.91
2022-12-20T02:31:18.823Z,100810.53
2022-12-20T02:33:49.368Z,100798.09
2022-12-20T02:36:19.203Z,100794.81
2022-12-20T02:38:45.846Z,100791.69
2022-12-20T02:41:23.684Z,100780.78
2022-12-20T02:44:13.816Z,100789.59
2022-12-20T02:46:41.576Z,100795.22
2022-12-20T02:49:13.939Z,100791.97
2022-12-20T02:51:44.030Z,100788.72
2022-12-20T02:54:12.355Z,100792.69
2022-12-20T02:56:46.427Z,100782.31
2022-12-20T02:59:24.828Z,100789.91
2022-12-20T03:01:55.070Z,100776.34
2022-12-20T03:04:26.367Z,100785.19
2022-12-20T03:07:07.548Z,100779.59
2022-12-20T03:09:38.513Z,100779.22
2022-12-20T03:12:06.276Z,100774.41
2022-12-20T03:14:32.724Z,100775.22
2022-12-20T03:16:59.294Z,100777.22
2022-12-20T03:19:25.760Z,100767.22
2022-12-20T03:21:52.426Z,100773.63
2022-12-20T03:24:21.576Z,100782.00
2022-12-20T03:26:48.139Z,100784.44
2022-12-20T03:29:14.622Z,100798.91
2022-12-20T03:31:41.035Z,100796.09
2022-12-20T03:34:07.632Z,100800.09
2022-12-20T03:36:34.537Z,100797.28
2022-12-20T03:39:01.126Z,100802.06
2022-12-20T03:41:27.853Z,100799.69
2022-12-20T03:43:54.432Z,100793.28
2022-12-20T03:46:20.990Z,100796.53
2022-12-20T03:48:47.390Z,100785.69
2022-12-20T03:51:13.787Z,100782.09
2022-12-20T03:53:40.129Z,100791.31
2022-12-20T03:56:06.757Z,100800.09
2022-12-20T03:58:33.292Z,100783.63
2022-12-20T04:00:59.859Z,100786.00
2022-12-20T04:03:26.604Z,100784.38
2022-12-20T04:05:53.064Z,100772.72
2022-12-20T04:08:19.617Z,100773.81
2022-12-20T04:11:04.612Z,100771.75
2022-12-20T04:13:30.976Z,100769.31
2022-12-20T04:16:00.608Z,100775.66
2022-12-20T04:18:27.495Z,100774.75
2022-12-20T04:20:54.159Z,100769.09
2022-12-20T04:23:20.605Z,100765.03
2022-12-20T04:25:46.985Z,100779.38
2022-12-20T04:28:13.986Z,100773.72
2022-12-20T04:30:40.511Z,100770.84
2022-12-20T04:33:06.889Z,100765.25
2022-12-20T04:35:33.624Z,100767.97
2022-12-20T04:37:59.936Z,100764.72
2022-12-20T04:40:26.478Z,100770.34
2022-12-20T04:42:52.944Z,100765.09
2022-12-20T04:45:19.320Z,100767.06
2022-12-20T04:47:45.734Z,100762.66
2022-12-20T04:50:12.240Z,100765.47
2022-12-20T04:52:57.258Z,100769.06
2022-12-20T04:55:23.652Z,100759.84
2022-12-20T04:57:50.027Z,100752.28
2022-12-20T05:00:18.506Z,100765.03
2022-12-20T05:02:44.966Z,100756.97
2022-12-20T05:05:11.453Z,100761.34
2022-12-20T05:07:38.202Z,100766.13
2022-12-20T05:10:04.999Z,100752.47
2022-12-20T05:12:31.534Z,100766.84
2022-12-20T05:14:57.939Z,100763.59
2022-12-20T05:17:24.309Z,100753.22
2022-12-20T05:19:52.483Z,100768.84
2022-12-20T05:22:37.214Z,100762.44
2022-12-20T05:25:22.242Z,100766.03
2022-12-20T05:27:48.609Z,100761.69
2022-12-20T05:30:16.072Z,100772.06
2022-12-20T05:32:42.607Z,100761.25
2022-12-20T05:35:09.336Z,100761.25
2022-12-20T05:37:35.714Z,100750.44
2022-12-20T05:40:02.065Z,100747.16
2022-12-20T05:42:28.409Z,100740.34
2022-12-20T05:44:54.931Z,100753.84
2022-12-20T05:47:21.375Z,100747.47
2022-12-20T05:49:47.928Z,100748.22
2022-12-20T05:52:14.424Z,100742.63
2022-12-20T05:54:41.030Z,100726.16
2022-12-20T05:57:07.383Z,100728.97
2022-12-20T05:59:33.749Z,100712.19
2022-12-20T06:02:00.170Z,100716.16
2022-12-20T06:04:27.038Z,100724.19
2022-12-20T06:06:53.380Z,100726.16
2022-12-20T06:09:19.898Z,100715.78
2022-12-20T06:11:47.486Z,100710.19
2022-12-20T06:14:13.810Z,100714.63
2022-12-20T06:16:40.215Z,100704.25
2022-12-20T06:19:06.647Z,100718.69
2022-12-20T06:21:33.728Z,100708.66
2022-12-20T06:24:01.739Z,100711.91
2022-12-20T06:26:29.456Z,100705.16
2022-12-20T06:28:57.092Z,100708.38
2022-12-20T06:31:23.528Z,100693.22
2022-12-20T06:33:49.863Z,100704.06
2022-12-20T06:36:16.305Z,100690.88
2022-12-20T06:38:42.610Z,100702.50
2022-12-20T06:41:09.005Z,100718.91
2022-12-20T06:43:35.345Z,100706.19
2022-12-20T06:46:01.730Z,100704.63
2022-12-20T06:48:28.457Z,100700.28
2022-12-20T06:50:56.363Z,100693.13
2022-12-20T06:53:22.890Z,100695.66
2022-12-20T06:55:50.606Z,100703.69
2022-12-20T06:58:18.308Z,100699.78
2022-12-20T07:00:45.293Z,100685.03
2022-12-20T07:03:11.919Z,100675.09
2022-12-20T07:05:38.360Z,100679.13
2022-12-20T07:08:05.323Z,100679.59
2022-12-20T07:10:34.284Z,100672.81
2022-12-20T07:13:00.585Z,100670.88
2022-12-20T07:15:26.978Z,100669.72
2022-12-20T07:17:53.339Z,100669.31
2022-12-20T07:20:19.911Z,100672.59
2022-12-20T07:22:49.626Z,100666.97
2022-12-20T07:25:16.131Z,100675.50
2022-12-20T07:27:42.635Z,100675.91
2022-12-20T07:30:10.436Z,100678.34
2022-12-20T07:32:37.451Z,100675.19
2022-12-20T07:35:04.080Z,100670.38
2022-12-20T07:37:30.544Z,100661.63
2022-12-20T07:39:57.240Z,100654.00
2022-12-20T07:42:23.576Z,100666.81
2022-12-20T07:44:50.527Z,100665.28
2022-12-20T07:47:16.833Z,100654.91
2022-12-20T07:49:43.322Z,100657.31
2022-12-20T07:52:13.903Z,100658.97
2022-12-20T07:54:48.481Z,100663.72
2022-12-20T07:57:48.367Z,100667.34
2022-12-20T08:00:15.831Z,100669.84
2022-12-20T08:03:14.736Z,100664.59
2022-12-20T08:05:44.202Z,100669.91
2022-12-20T08:08:10.677Z,100662.75
2022-12-20T08:10:38.665Z,100664.38
2022-12-20T08:13:06.174Z,100663.97
2022-12-20T08:15:34.835Z,100654.03
2022-12-20T08:18:01.226Z,100652.91
2022-12-20T08:20:27.604Z,100653.00
2022-12-20T08:22:54.030Z,100659.81
2022-12-20T08:25:21.688Z,100653.88
2022-12-20T08:27:48.050Z,100661.50
2022-12-20T08:30:14.745Z,100663.56
2022-12-20T08:32:41.392Z,100667.25
2022-12-20T08:35:08.281Z,100655.25
2022-12-20T08:37:34.740Z,100662.94
2022-12-20T08:40:01.116Z,100656.94
2022-12-20T08:42:28.476Z,100661.00
2022-12-20T08:44:55.713Z,100654.63
2022-12-20T08:47:22.101Z,100641.06
2022-12-20T08:49:48.424Z,100643.88
2022-12-20T08:52:15.117Z,100636.25
2022-12-20T08:54:41.462Z,100641.06
2022-12-20T08:57:08.724Z,100643.06
2022-12-20T08:59:35.054Z,100641.81
2022-12-20T09:02:01.799Z,100623.38
2022-12-20T09:04:28.197Z,100628.19
2022-12-20T09:06:54.785Z,100625.75
2022-12-20T09:09:21.185Z,100621.78
2022-12-20T09:11:47.717Z,100628.19
2022-12-20T09:14:14.144Z,100629.78
2022-12-20T09:16:40.522Z,100628.59
2022-12-20T09:19:07.108Z,100626.25
2022-12-20T09:21:34.861Z,100619.88
2022-12-20T09:24:01.512Z,100622.72
2022-12-20T09:26:27.942Z,100636.34
2022-12-20T09:28:54.535Z,100633.19
2022-12-20T09:31:26.247Z,100631.63
2022-12-20T09:33:57.893Z,100632.06
2022-12-20T09:36:25.590Z,100636.91
2022-12-20T09:38:52.293Z,100646.97
2022-12-20T09:41:39.667Z,100644.19
2022-12-20T09:44:24.072Z,100628.22
2022-12-20T09:47:01.373Z,100636.31
2022-12-20T09:49:36.463Z,100627.19
2022-12-20T09:52:24.501Z,100630.78
2022-12-20T09:55:00.477Z,100634.47
2022-12-20T09:57:54.835Z,100628.03
2022-12-20T10:00:21.638Z,100636.50
2022-12-20T10:03:06.080Z,100638.13
2022-12-20T10:05:45.847Z,100635.31
2022-12-20T10:08:41.907Z,100633.69
2022-12-20T10:11:41.947Z,100630.53
2022-12-20T10:14:24.927Z,100624.13
2022-12-20T10:16:58.488Z,100626.56
2022-12-20T10:19:48.388Z,100627.72
2022-12-20T10:22:21.563Z,100629.75
2022-12-20T10:25:25.824Z,100626.94
2022-12-20T10:27:57.146Z,100618.56
2022-12-20T10:30:27.012Z,100615.38
2022-12-20T10:32:55.868Z,100611.81
2022-12-20T10:35:33.896Z,100609.81
2022-12-20T10:38:09.577Z,100595.47
2022-12-20T10:41:23.806Z,100596.28
2022-12-20T10:43:45.556Z,100588.72
2022-12-20T10:46:15.073Z,100579.53
2022-12-20T10:48:43.593Z,100576.34
2022-12-20T10:51:15.486Z,100573.94
2022-12-20T10:53:56.566Z,100577.16
2022-12-20T10:56:36.299Z,100566.78
2022-12-20T10:59:17.765Z,100565.59
2022-12-20T11:01:47.050Z,100558.81
2022-12-20T11:04:33.856Z,100548.00
2022-12-20T11:07:02.854Z,100538.41
2022-12-20T11:09:36.589Z,100533.59
2022-12-20T11:12:13.764Z,100533.59
2022-12-20T11:14:41.969Z,100538.03
2022-12-20T11:17:11.549Z,100530.84
2022-12-20T11:19:58.326Z,100523.22
2022-12-20T11:22:30.497Z,100523.69
2022-12-20T11:25:03.027Z,100519.69
2022-12-20T11:27:32.514Z,100516.53
2022-12-20T11:30:13.419Z,100520.56
2022-12-20T11:33:13.217Z,100520.59
2022-12-20T11:36:03.175Z,100513.00
2022-12-20T11:38:41.610Z,100516.25
2022-12-20T11:41:32.848Z,100503.06
2022-12-20T11:44:33.731Z,100492.63
2022-12-20T11:47:15.536Z,100497.44
2022-12-20T11:50:12.384Z,100494.69
2022-12-20T11:53:08.256Z,100497.91
2022-12-20T11:55:41.663Z,100498.81
2022-12-20T11:58:21.648Z,100494.00
2022-12-20T12:00:58.979Z,100489.97
2022-12-20T12:03:35.411Z,100497.22
2022-12-20T12:06:10.634Z,100482.00
2022-12-20T12:08:43.900Z,100476.38
2022-12-20T12:14:18.121Z,100478.78
2022-12-20T12:16:51.115Z,100476.78
2022-12-20T12:19:17.803Z,100465.53
2022-12-20T12:21:55.608Z,100470.34
2022-12-20T12:24:29.287Z,100465.53
2022-12-20T12:26:59.663Z,100463.53
2022-12-20T12:29:30.171Z,100468.34
2022-12-20T12:32:14.627Z,100469.59
2022-12-20T12:34:50.120Z,100469.94
2022-12-20T12:37:39.760Z,100465.94
2022-12-20T12:40:25.046Z,100471.56
2022-12-20T12:43:21.781Z,100477.16
2022-12-20T12:45:57.811Z,100468.34
2022-12-20T12:48:42.478Z,100480.38
2022-12-20T12:51:10.779Z,100473.97
2022-12-20T12:53:51.339Z,100476.38
2022-12-20T12:56:43.109Z,100469.50
2022-12-20T12:59:13.050Z,100476.34
2022-12-20T13:01:56.797Z,100477.50
2022-12-20T13:04:27.372Z,100479.09
2022-12-20T13:06:56.926Z,100471.44
2022-12-20T13:09:26.336Z,100463.03
2022-12-20T13:12:01.353Z,100460.22
2022-12-20T13:14:31.167Z,100459.84
2022-12-20T13:17:20.719Z,100463.81
2022-12-20T13:19:57.707Z,100473.06
2022-12-20T13:22:26.487Z,100458.66
2022-12-20T13:25:03.025Z,100465.03
2022-12-20T13:27:37.170Z,100469.00
2022-12-20T13:30:13.724Z,100450.94
2022-12-20T13:32:49.522Z,100471.81
2022-12-20T13:35:25.108Z,100462.94
2022-12-20T13:38:07.516Z,100481.00
2022-12-20T13:40:39.394Z,100466.97
2022-12-20T13:43:14.281Z,100477.78
2022-12-20T13:45:46.351Z,100476.16
2022-12-20T13:48:17.960Z,100477.34
2022-12-20T13:50:52.241Z,100470.13
2022-12-20T13:53:27.643Z,100473.69
2022-12-20T13:55:55.088Z,100472.91
2022-12-20T13:58:25.437Z,100465.69
2022-12-20T14:00:54.341Z,100468.06
2022-12-20T14:03:25.166Z,100464.44
2022-12-20T14:06:04.051Z,100469.59
2022-12-20T14:08:37.044Z,100467.94
2022-12-20T14:11:46.212Z,100468.31
2022-12-20T14:14:14.064Z,100464.66
2022-12-20T14:16:40.535Z,100475.88
2022-12-20T14:19:14.759Z,100468.97
2022-12-20T14:21:43.664Z,100467.38
2022-12-20T14:24:17.463Z,100464.91
2022-12-20T14:26:51.401Z,100470.91
2022-12-20T14:29:23.344Z,100484.50
2022-12-20T14:31:51.502Z,100471.28
2022-12-20T14:34:38.108Z,100488.06
2022-12-20T14:37:19.724Z,100479.22
2022-12-20T14:40:19.235Z,100490.00
2022-12-20T14:42:53.254Z,100481.59
2022-12-20T14:45:23.485Z,100492.41
2022-12-20T14:47:55.984Z,100491.97
2022-12-20T14:50:33.137Z,100484.69
2022-12-20T14:53:00.209Z,100481.47
2022-12-20T14:55:36.448Z,100478.59
2022-12-20T14:58:22.971Z,100484.97
2022-12-20T15:00:58.839Z,100476.44
2022-12-20T15:03:25.913Z,100476.00
2022-12-20T15:06:00.102Z,100481.97
2022-12-20T15:08:33.071Z,100473.09
2022-12-20T15:11:22.451Z,100469.03
2022-12-20T15:13:54.423Z,100465.81
2022-12-20T15:16:23.973Z,100461.78
2022-12-20T15:18:53.306Z,100456.94
2022-12-20T15:21:32.544Z,100460.88
2022-12-20T15:24:02.155Z,100451.22
2022-12-20T15:26:32.039Z,100454.41
2022-12-20T15:28:58.460Z,100453.97
2022-12-20T15:31:32.986Z,100446.72
2022-12-20T15:34:06.727Z,100449.50
2022-12-20T15:36:33.971Z,100450.69
2022-12-20T15:39:12.395Z,100445.03
2022-12-20T15:41:42.794Z,100444.97
2022-12-20T15:44:19.928Z,100450.91
2022-12-20T15:46:46.622Z,100449.72
2022-12-20T15:49:16.075Z,100439.28
2022-12-20T15:51:44.424Z,100441.63
2022-12-20T15:54:27.863Z,100436.38
2022-12-20T15:56:55.883Z,100439.97
2022-12-20T15:59:58.436Z,100440.34
2022-12-20T16:02:22.841Z,100440.69
2022-12-20T16:04:50.500Z,100443.50
2022-12-20T16:07:17.012Z,100433.84
2022-12-20T16:09:43.511Z,100427.38
2022-12-20T16:12:16.158Z,100428.16
2022-12-20T16:14:42.520Z,100428.94
2022-12-20T16:17:14.377Z,100426.09
2022-12-20T16:19:42.365Z,100425.28
2022-12-20T16:22:15.913Z,100422.44
2022-12-20T16:24:43.574Z,100414.03
2022-12-20T16:27:10.142Z,100414.81
2022-12-20T16:29:36.769Z,100419.22
2022-12-20T16:32:08.131Z,100414.41
2022-12-20T16:34:34.455Z,100415.59
2022-12-20T16:37:00.920Z,100417.59
2022-12-20T16:39:27.445Z,100422.41
2022-12-20T16:41:54.940Z,100423.13
2022-12-20T16:44:22.933Z,100417.94
2022-12-20T16:46:49.412Z,100418.34
2022-12-20T16:49:20.433Z,100418.34
2022-12-20T16:51:49.072Z,100421.53
2022-12-20T16:54:22.340Z,100426.31
2022-12-20T16:56:55.281Z,100423.13
2022-12-20T16:59:25.484Z,100421.53
2022-12-20T17:01:54.397Z,100433.53
2022-12-20T17:04:21.613Z,100428.72
2022-12-20T17:06:48.973Z,100431.53
2022-12-20T17:12:00.136Z,100423.56
2022-12-20T17:14:26.654Z,100428.00
2022-12-20T17:16:53.249Z,100424.34
2022-12-20T17:19:19.680Z,100420.41
2022-12-20T17:24:32.858Z,100417.22
2022-12-20T17:27:00.501Z,100421.63
2022-12-20T17:29:27.077Z,100422.06
2022-12-20T17:31:54.287Z,100424.47
2022-12-20T17:34:24.130Z,100416.88
2022-12-20T17:36:53.233Z,100425.69
2022-12-20T17:39:20.262Z,100411.34
2022-12-20T17:41:47.806Z,100409.75
2022-12-20T17:44:23.681Z,100417.81
2022-12-20T17:46:50.269Z,100403.03
2022-12-20T17:49:17.158Z,100412.69
2022-12-20T17:51:44.032Z,100404.28
2022-12-20T17:54:18.674Z,100401.88
2022-12-20T17:56:45.094Z,100396.69
2022-12-20T17:59:12.700Z,100398.28
2022-12-20T18:01:40.002Z,100397.91
2022-12-20T18:04:09.721Z,100392.69
2022-12-20T18:06:39.879Z,100389.50
2022-12-20T18:09:15.789Z,100380.28
2022-12-20T18:11:43.450Z,100386.69
2022-12-20T18:14:10.698Z,100375.50
2022-12-20T18:16:39.291Z,100378.69
2022-12-20T18:19:07.066Z,100385.47
2022-12-20T18:21:33.660Z,100381.47
2022-12-20T18:24:00.182Z,100399.09
2022-12-20T18:26:29.627Z,100382.28
2022-12-20T18:28:58.381Z,100387.88
2022-12-20T18:31:28.357Z,100386.69
2022-12-20T18:33:58.413Z,100383.91
2022-12-20T18:36:30.689Z,100392.28
2022-12-20T18:38:58.753Z,100379.13
2022-12-20T18:41:28.130Z,100385.16
2022-12-20T18:44:00.169Z,100382.34
2022-12-20T18:46:27.314Z,100383.94
2022-12-20T18:48:56.041Z,100386.38
2022-12-20T18:51:24.215Z,100378.41
2022-12-20T18:53:55.115Z,100379.25
2022-12-20T18:56:28.723Z,100369.25
2022-12-20T18:59:04.549Z,100376.47
2022-12-20T19:01:37.241Z,100375.66
2022-12-20T19:04:06.395Z,100371.66
2022-12-20T19:06:33.386Z,100377.25
2022-12-20T19:09:03.969Z,100370.06
2022-12-20T19:11:30.408Z,100372.47
2022-12-20T19:13:56.915Z,100372.47
2022-12-20T19:16:32.526Z,100376.47
2022-12-20T19:19:00.468Z,100378.06
2022-12-20T19:21:29.222Z,100373.28
2022-12-20T19:23:59.639Z,100381.25
2022-12-20T19:26:29.767Z,100378.06
2022-12-20T19:28:57.228Z,100382.47
2022-12-20T19:31:27.771Z,100379.25
2022-12-20T19:34:00.601Z,100383.25
2022-12-20T19:36:34.538Z,100380.81
2022-12-20T19:39:04.707Z,100371.22
2022-12-20T19:41:33.396Z,100378.00
2022-12-20T19:44:00.141Z,100373.22
2022-12-20T19:46:29.611Z,100377.22
2022-12-20T19:48:58.078Z,100374.03
2022-12-20T19:51:25.818Z,100367.63
2022-12-20T19:53:54.643Z,100375.22
2022-12-20T19:56:23.307Z,100377.25
2022-12-20T19:58:49.869Z,100371.28
2022-12-20T20:01:17.895Z,100373.66
2022-12-20T20:03:45.553Z,100370.06
2022-12-20T20:06:12.836Z,100372.84
2022-12-20T20:08:40.506Z,100378.00
2022-12-20T20:11:09.839Z,100376.00
2022-12-20T20:13:38.084Z,100372.41
2022-12-20T20:16:06.846Z,100366.81
2022-12-20T20:18:35.082Z,100370.41
2022-12-20T20:21:12.467Z,100370.00
2022-12-20T20:23:38.986Z,100379.63
2022-12-20T20:26:11.086Z,100371.59
2022-12-20T20:28:44.479Z,100376.41
2022-12-20T20:31:13.537Z,100370.81
2022-12-20T20:33:40.246Z,100370.81
2022-12-20T20:36:06.987Z,100365.19
2022-12-20T20:38:35.637Z,100370.75
2022-12-20T20:41:02.145Z,100366.78
2022-12-20T20:43:29.600Z,100369.59
2022-12-20T20:45:56.894Z,100372.38
2022-12-20T20:48:23.689Z,100367.94
2022-12-20T20:50:50.240Z,100366.72
2022-12-20T20:53:16.580Z,100359.88
2022-12-20T20:55:43.099Z,100359.88
2022-12-20T20:58:12.282Z,100361.06
2022-12-20T21:00:40.347Z,100359.84
2022-12-20T21:03:06.882Z,100358.22
2022-12-20T21:08:21.773Z,100365.81
2022-12-20T21:10:49.365Z,100357.81
2022-12-20T21:13:17.732Z,100350.59
2022-12-20T21:15:46.535Z,100351.75
2022-12-20T21:18:13.818Z,100351.75
2022-12-20T21:20:40.294Z,100350.16
2022-12-20T21:23:06.828Z,100349.75
2022-12-20T21:25:33.195Z,100344.13
2022-12-20T21:27:59.581Z,100346.13
2022-12-20T21:30:26.052Z,100343.34
2022-12-20T21:32:52.412Z,100350.53
2022-12-20T21:35:18.810Z,100347.75
2022-12-20T21:37:45.216Z,100351.34
2022-12-20T21:40:12.102Z,100347.75
2022-12-20T21:42:38.492Z,100357.75
2022-12-20T21:45:07.648Z,100350.16
2022-12-20T21:47:35.268Z,100360.16
2022-12-20T21:50:01.766Z,100363.78
2022-12-20T21:52:28.545Z,100362.97
2022-12-20T21:54:54.903Z,100358.56
2022-12-20T21:57:21.376Z,100357.75
2022-12-20T21:59:47.758Z,100358.94
2022-12-20T22:02:14.424Z,100362.94
2022-12-20T22:04:40.818Z,100361.28
2022-12-20T22:07:07.357Z,100360.88
2022-12-20T22:09:33.778Z,100365.69
2022-12-20T22:12:00.200Z,100366.44
2022-12-20T22:14:26.553Z,100363.22
2022-12-20T22:16:54.833Z,100362.41
2022-12-20T22:19:21.595Z,100362.75
2022-12-20T22:21:53.696Z,100360.34
2022-12-20T22:24:24.136Z,100363.53
2022-12-20T22:26:50.769Z,100364.72
2022-12-20T22:29:17.138Z,100363.44
2022-12-20T22:31:43.697Z,100361.84
2022-12-20T22:34:10.306Z,100363.44
2022-12-20T22:36:37.212Z,100360.66
2022-12-20T22:39:03.837Z,100370.25
2022-12-20T22:41:33.885Z,100368.25
2022-12-20T22:44:00.566Z,100364.66
2022-12-20T22:46:29.302Z,100371.84
2022-12-20T22:48:56.486Z,100352.66
2022-12-20T22:51:27.953Z,100368.25
2022-12-20T22:53:54.513Z,100364.66
2022-12-20T22:56:22.573Z,100357.84
2022-12-20T22:58:50.270Z,100357.06
2022-12-20T23:01:19.053Z,100359.84
2022-12-20T23:03:46.457Z,100357.44
2022-12-20T23:06:15.430Z,100367.81
2022-12-20T23:08:42.787Z,100356.25
2022-12-20T23:11:36.389Z,100365.84
2022-12-20T23:14:22.816Z,100357.06
2022-12-20T23:16:49.634Z,100360.66
2022-12-20T23:19:16.345Z,100356.25
2022-12-20T23:22:01.677Z,100357.84
2022-12-20T23:24:28.084Z,100359.03
2022-12-20T23:26:54.410Z,100359.84
2022-12-20T23:29:20.796Z,100356.25
2022-12-20T23:31:47.159Z,100357.44
2022-12-20T23:34:13.549Z,100358.59
2022-12-20T23:36:41.352Z,100355.00
2022-12-20T23:39:08.402Z,100361.41
2022-12-20T23:41:39.031Z,100355.81
2022-12-20T23:44:06.107Z,100354.19
2022-12-20T23:46:33.263Z,100359.44
2022-12-20T23:48:59.723Z,100358.59
2022-12-20T23:51:26.268Z,100362.22
2022-12-20T23:53:52.828Z,100355.81
2022-12-20T23:56:21.470Z,100365.84
2022-12-20T23:58:52.789Z,100363.84
